sensor_id;sensor_type;location;lat;lon;timestamp;pressure;altitude;pressure_sealevel;temperature;humidity
79671;BME280;69137;50.878;8.050;2023-04-12T00:00:42;97588.50;;;5.70;70.36
79671;BME280;69137;50.878;8.050;2023-04-12T00:03:09;97585.84;;;5.76;70.49
79671;BME280;69137;50.878;8.050;2023-04-12T00:05:34;97580.22;;;5.82;70.72
79671;BME280;69137;50.878;8.050;2023-04-12T00:08:00;97576.75;;;5.87;70.36
79671;BME280;69137;50.878;8.050;2023-04-12T00:10:29;97565.41;;;5.90;70.41
79671;BME280;69137;50.878;8.050;2023-04-12T00:12:54;97551.09;;;5.95;70.19
79671;BME280;69137;50.878;8.050;2023-04-12T00:15:20;97541.69;;;6.02;69.58
79671;BME280;69137;50.878;8.050;2023-04-12T00:17:45;97534.63;;;6.01;70.00
79671;BME280;69137;50.878;8.050;2023-04-12T00:20:11;97529.25;;;6.06;70.28
79671;BME280;69137;50.878;8.050;2023-04-12T00:22:39;97523.53;;;6.03;70.11
79671;BME280;69137;50.878;8.050;2023-04-12T00:25:09;97521.28;;;5.95;70.46
79671;BME280;69137;50.878;8.050;2023-04-12T00:27:35;97515.38;;;6.03;69.92
79671;BME280;69137;50.878;8.050;2023-04-12T00:30:01;97514.00;;;6.00;70.29
79671;BME280;69137;50.878;8.050;2023-04-12T00:32:28;97509.91;;;5.98;70.54
79671;BME280;69137;50.878;8.050;2023-04-12T00:34:53;97513.38;;;5.93;71.20
79671;BME280;69137;50.878;8.050;2023-04-12T00:37:18;97506.44;;;6.02;70.73
79671;BME280;69137;50.878;8.050;2023-04-12T00:39:44;97502.63;;;6.03;70.75
79671;BME280;69137;50.878;8.050;2023-04-12T00:42:10;97496.59;;;5.96;70.83
79671;BME280;69137;50.878;8.050;2023-04-12T00:44:36;97495.78;;;5.96;71.15
79671;BME280;69137;50.878;8.050;2023-04-12T00:47:04;97496.19;;;5.82;71.67
79671;BME280;69137;50.878;8.050;2023-04-12T00:49:32;97494.75;;;5.97;71.04
79671;BME280;69137;50.878;8.050;2023-04-12T00:52:04;97494.50;;;6.03;71.19
79671;BME280;69137;50.878;8.050;2023-04-12T00:54:33;97502.13;;;6.06;69.88
79671;BME280;69137;50.878;8.050;2023-04-12T00:56:59;97499.44;;;6.11;69.34
79671;BME280;69137;50.878;8.050;2023-04-12T00:59:25;97496.78;;;6.17;69.18
79671;BME280;69137;50.878;8.050;2023-04-12T01:01:51;97495.53;;;6.29;68.26
79671;BME280;69137;50.878;8.050;2023-04-12T01:04:17;97484.19;;;6.38;67.43
79671;BME280;69137;50.878;8.050;2023-04-12T01:09:56;97480.59;;;6.74;66.28
79671;BME280;69137;50.878;8.050;2023-04-12T01:12:49;97474.41;;;6.84;66.48
79671;BME280;69137;50.878;8.050;2023-04-12T01:15:16;97469.28;;;6.88;66.31
79671;BME280;69137;50.878;8.050;2023-04-12T01:20:35;97460.06;;;6.94;66.18
79671;BME280;69137;50.878;8.050;2023-04-12T01:28:29;97450.66;;;7.17;66.42
79671;BME280;69137;50.878;8.050;2023-04-12T01:30:57;97446.03;;;7.17;66.41
79671;BME280;69137;50.878;8.050;2023-04-12T01:33:24;97441.66;;;7.06;67.10
79671;BME280;69137;50.878;8.050;2023-04-12T01:35:57;97449.50;;;7.03;67.18
79671;BME280;69137;50.878;8.050;2023-04-12T01:38:23;97436.50;;;7.15;66.82
79671;BME280;69137;50.878;8.050;2023-04-12T01:40:49;97426.72;;;7.09;67.32
79671;BME280;69137;50.878;8.050;2023-04-12T01:43:15;97423.19;;;7.03;68.17
79671;BME280;69137;50.878;8.050;2023-04-12T01:45:40;97424.00;;;7.04;68.25
79671;BME280;69137;50.878;8.050;2023-04-12T01:48:10;97416.91;;;6.97;68.63
79671;BME280;69137;50.878;8.050;2023-04-12T01:53:32;97413.38;;;7.02;69.04
79671;BME280;69137;50.878;8.050;2023-04-12T01:56:07;97417.78;;;7.08;68.99
79671;BME280;69137;50.878;8.050;2023-04-12T01:58:33;97404.44;;;7.02;69.54
79671;BME280;69137;50.878;8.050;2023-04-12T02:01:00;97402.50;;;6.92;70.25
79671;BME280;69137;50.878;8.050;2023-04-12T02:03:27;97397.91;;;7.08;69.50
79671;BME280;69137;50.878;8.050;2023-04-12T02:05:56;97400.59;;;6.92;70.40
79671;BME280;69137;50.878;8.050;2023-04-12T02:08:23;97404.94;;;6.93;70.62
79671;BME280;69137;50.878;8.050;2023-04-12T02:10:49;97396.75;;;6.83;71.08
79671;BME280;69137;50.878;8.050;2023-04-12T02:13:15;97388.63;;;6.88;71.09
79671;BME280;69137;50.878;8.050;2023-04-12T02:15:42;97386.44;;;6.80;71.81
79671;BME280;69137;50.878;8.050;2023-04-12T02:18:08;97382.88;;;6.74;71.82
79671;BME280;69137;50.878;8.050;2023-04-12T02:20:34;97370.72;;;6.92;71.43
79671;BME280;69137;50.878;8.050;2023-04-12T02:23:00;97361.16;;;6.69;72.50
79671;BME280;69137;50.878;8.050;2023-04-12T02:25:25;97353.84;;;6.75;73.08
79671;BME280;69137;50.878;8.050;2023-04-12T02:27:51;97351.09;;;6.65;73.12
79671;BME280;69137;50.878;8.050;2023-04-12T02:30:17;97361.44;;;6.73;72.81
79671;BME280;69137;50.878;8.050;2023-04-12T02:32:43;97350.56;;;6.68;73.04
79671;BME280;69137;50.878;8.050;2023-04-12T02:35:13;97334.50;;;6.61;73.35
79671;BME280;69137;50.878;8.050;2023-04-12T02:37:42;97325.88;;;6.69;72.83
79671;BME280;69137;50.878;8.050;2023-04-12T02:40:08;97313.66;;;6.67;72.94
79671;BME280;69137;50.878;8.050;2023-04-12T02:42:35;97302.78;;;6.62;73.25
79671;BME280;69137;50.878;8.050;2023-04-12T02:45:00;97301.13;;;6.61;73.24
79671;BME280;69137;50.878;8.050;2023-04-12T02:47:26;97314.16;;;6.64;73.54
79671;BME280;69137;50.878;8.050;2023-04-12T02:49:53;97301.69;;;6.63;73.87
79671;BME280;69137;50.878;8.050;2023-04-12T02:52:19;97285.41;;;6.68;74.08
79671;BME280;69137;50.878;8.050;2023-04-12T02:54:44;97281.59;;;6.59;74.40
79671;BME280;69137;50.878;8.050;2023-04-12T02:57:09;97276.44;;;6.52;75.13
79671;BME280;69137;50.878;8.050;2023-04-12T02:59:36;97277.81;;;6.60;75.03
79671;BME280;69137;50.878;8.050;2023-04-12T03:02:01;97273.97;;;6.50;75.06
79671;BME280;69137;50.878;8.050;2023-04-12T03:04:26;97271.78;;;6.47;75.33
79671;BME280;69137;50.878;8.050;2023-04-12T03:06:55;97261.72;;;6.38;75.62
79671;BME280;69137;50.878;8.050;2023-04-12T03:09:21;97260.91;;;6.42;75.63
79671;BME280;69137;50.878;8.050;2023-04-12T03:11:47;97269.59;;;6.39;75.62
79671;BME280;69137;50.878;8.050;2023-04-12T03:14:13;97263.63;;;6.42;75.84
79671;BME280;69137;50.878;8.050;2023-04-12T03:16:38;97252.50;;;6.39;76.08
79671;BME280;69137;50.878;8.050;2023-04-12T03:19:04;97251.19;;;6.51;75.45
79671;BME280;69137;50.878;8.050;2023-04-12T03:21:31;97249.81;;;6.49;75.40
79671;BME280;69137;50.878;8.050;2023-04-12T03:23:57;97240.84;;;6.48;75.81
79671;BME280;69137;50.878;8.050;2023-04-12T03:26:23;97240.28;;;6.36;75.93
79671;BME280;69137;50.878;8.050;2023-04-12T03:29:00;97220.75;;;6.39;75.58
79671;BME280;69137;50.878;8.050;2023-04-12T03:31:29;97227.00;;;6.40;76.13
79671;BME280;69137;50.878;8.050;2023-04-12T03:33:55;97220.22;;;6.37;76.53
79671;BME280;69137;50.878;8.050;2023-04-12T03:36:21;97217.75;;;6.41;76.34
79671;BME280;69137;50.878;8.050;2023-04-12T03:38:46;97202.03;;;6.38;76.31
79671;BME280;69137;50.878;8.050;2023-04-12T03:41:12;97200.94;;;6.33;76.74
79671;BME280;69137;50.878;8.050;2023-04-12T03:43:37;97187.66;;;6.37;76.49
79671;BME280;69137;50.878;8.050;2023-04-12T03:46:03;97180.88;;;6.34;76.38
79671;BME280;69137;50.878;8.050;2023-04-12T03:48:30;97173.53;;;6.30;76.77
79671;BME280;69137;50.878;8.050;2023-04-12T03:50:55;97165.69;;;6.39;76.56
79671;BME280;69137;50.878;8.050;2023-04-12T03:53:24;97151.84;;;6.35;76.77
79671;BME280;69137;50.878;8.050;2023-04-12T03:55:51;97139.09;;;6.41;75.87
79671;BME280;69137;50.878;8.050;2023-04-12T03:58:16;97132.59;;;6.37;76.53
79671;BME280;69137;50.878;8.050;2023-04-12T04:00:43;97127.16;;;6.42;76.42
79671;BME280;69137;50.878;8.050;2023-04-12T04:03:08;97129.31;;;6.34;76.81
79671;BME280;69137;50.878;8.050;2023-04-12T04:05:34;97116.88;;;6.33;76.80
79671;BME280;69137;50.878;8.050;2023-04-12T04:08:00;97120.38;;;6.34;77.26
79671;BME280;69137;50.878;8.050;2023-04-12T04:10:30;97116.06;;;6.33;77.09
79671;BME280;69137;50.878;8.050;2023-04-12T04:12:55;97110.63;;;6.28;77.56
79671;BME280;69137;50.878;8.050;2023-04-12T04:15:21;97102.19;;;6.24;77.83
79671;BME280;69137;50.878;8.050;2023-04-12T04:17:46;97098.41;;;6.41;77.22
79671;BME280;69137;50.878;8.050;2023-04-12T04:20:13;97101.94;;;6.26;76.94
79671;BME280;69137;50.878;8.050;2023-04-12T04:22:39;97087.81;;;6.24;77.52
79671;BME280;69137;50.878;8.050;2023-04-12T04:25:06;97098.41;;;6.20;77.73
79671;BME280;69137;50.878;8.050;2023-04-12T04:27:32;97094.03;;;6.14;78.71
79671;BME280;69137;50.878;8.050;2023-04-12T04:30:03;97082.66;;;6.27;78.02
79671;BME280;69137;50.878;8.050;2023-04-12T04:32:29;97075.88;;;6.35;77.77
79671;BME280;69137;50.878;8.050;2023-04-12T04:34:56;97061.50;;;6.24;79.36
79671;BME280;69137;50.878;8.050;2023-04-12T04:37:24;97066.13;;;6.29;78.93
79671;BME280;69137;50.878;8.050;2023-04-12T04:39:49;97067.72;;;6.09;79.70
79671;BME280;69137;50.878;8.050;2023-04-12T04:42:15;97057.16;;;6.13;79.81
79671;BME280;69137;50.878;8.050;2023-04-12T04:44:40;97050.94;;;6.18;79.72
79671;BME280;69137;50.878;8.050;2023-04-12T04:47:06;97061.25;;;6.16;79.88
79671;BME280;69137;50.878;8.050;2023-04-12T04:49:32;97053.09;;;6.16;80.54
79671;BME280;69137;50.878;8.050;2023-04-12T04:51:58;97053.91;;;6.11;80.21
79671;BME280;69137;50.878;8.050;2023-04-12T04:54:23;97042.25;;;6.10;80.62
79671;BME280;69137;50.878;8.050;2023-04-12T04:56:49;97031.13;;;6.12;81.14
79671;BME280;69137;50.878;8.050;2023-04-12T04:59:14;97025.44;;;6.19;80.16
79671;BME280;69137;50.878;8.050;2023-04-12T05:01:41;97020.81;;;6.09;80.33
79671;BME280;69137;50.878;8.050;2023-04-12T05:04:07;97002.66;;;6.15;80.21
79671;BME280;69137;50.878;8.050;2023-04-12T05:06:32;97001.03;;;6.08;80.69
79671;BME280;69137;50.878;8.050;2023-04-12T05:08:58;96995.59;;;6.08;81.02
79671;BME280;69137;50.878;8.050;2023-04-12T05:11:25;96978.25;;;6.09;80.52
79671;BME280;69137;50.878;8.050;2023-04-12T05:13:51;96995.59;;;6.03;81.36
79671;BME280;69137;50.878;8.050;2023-04-12T05:16:17;96986.91;;;6.01;81.72
79671;BME280;69137;50.878;8.050;2023-04-12T05:18:43;96986.38;;;6.09;81.04
79671;BME280;69137;50.878;8.050;2023-04-12T05:21:08;96978.78;;;6.06;81.42
79671;BME280;69137;50.878;8.050;2023-04-12T05:23:36;96979.06;;;6.00;81.85
79671;BME280;69137;50.878;8.050;2023-04-12T05:26:02;96979.59;;;6.07;81.60
79671;BME280;69137;50.878;8.050;2023-04-12T05:28:28;96970.94;;;6.00;81.67
79671;BME280;69137;50.878;8.050;2023-04-12T05:30:53;96968.78;;;5.97;82.22
79671;BME280;69137;50.878;8.050;2023-04-12T05:33:18;96960.91;;;6.00;82.70
79671;BME280;69137;50.878;8.050;2023-04-12T05:35:44;96955.19;;;5.91;82.78
79671;BME280;69137;50.878;8.050;2023-04-12T05:38:09;96951.66;;;5.96;82.42
79671;BME280;69137;50.878;8.050;2023-04-12T05:40:35;96945.16;;;5.92;82.96
79671;BME280;69137;50.878;8.050;2023-04-12T05:43:01;96951.41;;;5.98;82.72
79671;BME280;69137;50.878;8.050;2023-04-12T05:45:27;96938.63;;;5.88;83.43
79671;BME280;69137;50.878;8.050;2023-04-12T05:47:53;96929.16;;;5.90;83.76
79671;BME280;69137;50.878;8.050;2023-04-12T05:50:19;96925.63;;;5.85;84.13
79671;BME280;69137;50.878;8.050;2023-04-12T05:52:45;96926.19;;;5.82;84.89
79671;BME280;69137;50.878;8.050;2023-04-12T05:55:13;96921.00;;;5.75;85.29
79671;BME280;69137;50.878;8.050;2023-04-12T05:57:39;96911.81;;;5.81;85.03
79671;BME280;69137;50.878;8.050;2023-04-12T06:00:05;96919.94;;;5.81;85.04
79671;BME280;69137;50.878;8.050;2023-04-12T06:02:39;96920.47;;;5.78;85.43
79671;BME280;69137;50.878;8.050;2023-04-12T06:05:05;96915.34;;;5.77;85.53
79671;BME280;69137;50.878;8.050;2023-04-12T06:07:30;96914.78;;;5.80;85.36
79671;BME280;69137;50.878;8.050;2023-04-12T06:09:56;96921.00;;;5.75;85.62
79671;BME280;69137;50.878;8.050;2023-04-12T06:12:21;96909.63;;;5.78;86.25
79671;BME280;69137;50.878;8.050;2023-04-12T06:14:47;96903.69;;;5.71;86.45
79671;BME280;69137;50.878;8.050;2023-04-12T06:17:12;96900.69;;;5.73;86.96
79671;BME280;69137;50.878;8.050;2023-04-12T06:19:38;96898.78;;;5.73;86.92
79671;BME280;69137;50.878;8.050;2023-04-12T06:22:03;96896.38;;;5.72;86.85
79671;BME280;69137;50.878;8.050;2023-04-12T06:24:29;96887.13;;;5.73;87.52
79671;BME280;69137;50.878;8.050;2023-04-12T06:26:54;96891.22;;;5.70;88.18
79671;BME280;69137;50.878;8.050;2023-04-12T06:29:20;96889.59;;;5.69;87.40
79671;BME280;69137;50.878;8.050;2023-04-12T06:31:45;96884.72;;;5.71;87.57
79671;BME280;69137;50.878;8.050;2023-04-12T06:34:11;96887.69;;;5.69;87.72
79671;BME280;69137;50.878;8.050;2023-04-12T06:36:36;96878.47;;;5.65;88.10
79671;BME280;69137;50.878;8.050;2023-04-12T06:39:04;96880.66;;;5.68;87.99
79671;BME280;69137;50.878;8.050;2023-04-12T06:41:29;96873.59;;;5.73;87.34
79671;BME280;69137;50.878;8.050;2023-04-12T06:43:55;96868.97;;;5.68;87.70
79671;BME280;69137;50.878;8.050;2023-04-12T06:46:27;96868.97;;;5.68;88.30
79671;BME280;69137;50.878;8.050;2023-04-12T06:48:52;96867.09;;;5.79;87.67
79671;BME280;69137;50.878;8.050;2023-04-12T06:51:18;96856.78;;;5.76;87.54
79671;BME280;69137;50.878;8.050;2023-04-12T06:53:43;96860.59;;;5.75;87.48
79671;BME280;69137;50.878;8.050;2023-04-12T06:56:09;96857.63;;;5.76;87.50
79671;BME280;69137;50.878;8.050;2023-04-12T06:58:34;96843.78;;;5.78;87.63
79671;BME280;69137;50.878;8.050;2023-04-12T07:01:07;96845.41;;;5.79;88.05
79671;BME280;69137;50.878;8.050;2023-04-12T07:03:33;96839.16;;;5.78;88.15
79671;BME280;69137;50.878;8.050;2023-04-12T07:05:59;96823.75;;;5.79;87.58
79671;BME280;69137;50.878;8.050;2023-04-12T07:08:31;96821.03;;;5.84;88.10
79671;BME280;69137;50.878;8.050;2023-04-12T07:10:56;96819.38;;;5.83;89.02
79671;BME280;69137;50.878;8.050;2023-04-12T07:13:22;96811.81;;;5.80;88.65
79671;BME280;69137;50.878;8.050;2023-04-12T07:15:48;96813.69;;;5.89;88.52
79671;BME280;69137;50.878;8.050;2023-04-12T07:18:15;96798.78;;;5.92;88.29
79671;BME280;69137;50.878;8.050;2023-04-12T07:20:40;96798.22;;;5.90;88.37
79671;BME280;69137;50.878;8.050;2023-04-12T07:23:06;96790.66;;;5.92;88.39
79671;BME280;69137;50.878;8.050;2023-04-12T07:25:31;96780.06;;;5.90;88.87
79671;BME280;69137;50.878;8.050;2023-04-12T07:27:57;96780.38;;;5.94;89.00
79671;BME280;69137;50.878;8.050;2023-04-12T07:30:22;96775.75;;;6.00;88.77
79671;BME280;69137;50.878;8.050;2023-04-12T07:32:47;96765.97;;;6.04;88.98
79671;BME280;69137;50.878;8.050;2023-04-12T07:35:13;96761.63;;;6.08;89.13
79671;BME280;69137;50.878;8.050;2023-04-12T07:37:39;96757.00;;;6.08;87.80
79671;BME280;69137;50.878;8.050;2023-04-12T07:40:05;96765.13;;;6.08;88.92
79671;BME280;69137;50.878;8.050;2023-04-12T07:42:31;96748.31;;;6.06;89.23
79671;BME280;69137;50.878;8.050;2023-04-12T07:44:57;96745.34;;;6.13;89.10
79671;BME280;69137;50.878;8.050;2023-04-12T07:47:22;96748.59;;;6.15;88.85
79671;BME280;69137;50.878;8.050;2023-04-12T07:49:48;96745.56;;;6.17;88.78
79671;BME280;69137;50.878;8.050;2023-04-12T07:52:15;96739.88;;;6.18;88.82
79671;BME280;69137;50.878;8.050;2023-04-12T07:54:43;96737.97;;;6.19;88.43
79671;BME280;69137;50.878;8.050;2023-04-12T07:57:10;96738.22;;;6.22;89.02
79671;BME280;69137;50.878;8.050;2023-04-12T07:59:36;96732.28;;;6.20;88.72
79671;BME280;69137;50.878;8.050;2023-04-12T08:02:02;96731.72;;;6.23;89.07
79671;BME280;69137;50.878;8.050;2023-04-12T08:04:31;96733.63;;;6.23;89.34
79671;BME280;69137;50.878;8.050;2023-04-12T08:06:58;96727.34;;;6.27;89.20
79671;BME280;69137;50.878;8.050;2023-04-12T08:09:25;96728.97;;;6.33;89.11
79671;BME280;69137;50.878;8.050;2023-04-12T08:11:55;96725.44;;;6.33;89.22
79671;BME280;69137;50.878;8.050;2023-04-12T08:14:24;96715.09;;;6.40;89.46
79671;BME280;69137;50.878;8.050;2023-04-12T08:16:55;96712.91;;;6.42;88.52
79671;BME280;69137;50.878;8.050;2023-04-12T08:19:24;96717.50;;;6.47;89.06
79671;BME280;69137;50.878;8.050;2023-04-12T08:21:52;96714.50;;;6.48;89.15
79671;BME280;69137;50.878;8.050;2023-04-12T08:24:23;96697.94;;;6.50;88.11
79671;BME280;69137;50.878;8.050;2023-04-12T08:26:58;96689.53;;;6.51;88.73
79671;BME280;69137;50.878;8.050;2023-04-12T08:29:31;96692.75;;;6.53;88.66
79671;BME280;69137;50.878;8.050;2023-04-12T08:32:00;96696.50;;;6.63;88.28
79671;BME280;69137;50.878;8.050;2023-04-12T08:34:25;96690.50;;;6.66;88.84
79671;BME280;69137;50.878;8.050;2023-04-12T08:36:51;96688.06;;;6.69;88.68
79671;BME280;69137;50.878;8.050;2023-04-12T08:39:16;96694.28;;;6.70;89.15
79671;BME280;69137;50.878;8.050;2023-04-12T08:41:42;96675.00;;;6.71;88.76
79671;BME280;69137;50.878;8.050;2023-04-12T08:44:10;96673.88;;;6.77;88.51
79671;BME280;69137;50.878;8.050;2023-04-12T08:46:35;96682.75;;;6.88;88.17
79671;BME280;69137;50.878;8.050;2023-04-12T08:49:01;96660.41;;;6.96;88.08
79671;BME280;69137;50.878;8.050;2023-04-12T08:51:26;96657.44;;;6.98;88.15
79671;BME280;69137;50.878;8.050;2023-04-12T08:53:52;96657.13;;;6.99;87.88
79671;BME280;69137;50.878;8.050;2023-04-12T08:56:19;96659.25;;;7.03;88.37
79671;BME280;69137;50.878;8.050;2023-04-12T08:58:46;96650.56;;;7.06;87.73
79671;BME280;69137;50.878;8.050;2023-04-12T09:01:14;96643.47;;;7.10;87.65
79671;BME280;69137;50.878;8.050;2023-04-12T09:03:44;96641.81;;;7.14;87.43
79671;BME280;69137;50.878;8.050;2023-04-12T09:06:12;96647.22;;;7.14;87.71
79671;BME280;69137;50.878;8.050;2023-04-12T09:08:58;96637.13;;;7.19;87.60
79671;BME280;69137;50.878;8.050;2023-04-12T09:11:26;96636.28;;;7.24;88.28
79671;BME280;69137;50.878;8.050;2023-04-12T09:13:54;96632.44;;;7.25;88.06
79671;BME280;69137;50.878;8.050;2023-04-12T09:16:37;96626.31;;;7.38;87.91
79671;BME280;69137;50.878;8.050;2023-04-12T09:19:04;96625.09;;;7.50;87.25
79671;BME280;69137;50.878;8.050;2023-04-12T09:21:31;96611.78;;;7.53;87.61
79671;BME280;69137;50.878;8.050;2023-04-12T09:24:14;96620.19;;;7.52;87.34
79671;BME280;69137;50.878;8.050;2023-04-12T09:26:40;96609.28;;;7.57;87.01
79671;BME280;69137;50.878;8.050;2023-04-12T09:29:21;96619.56;;;7.60;86.84
79671;BME280;69137;50.878;8.050;2023-04-12T09:32:03;96614.06;;;7.65;87.60
79671;BME280;69137;50.878;8.050;2023-04-12T09:34:29;96619.97;;;7.72;88.20
79671;BME280;69137;50.878;8.050;2023-04-12T09:36:55;96611.41;;;7.84;87.69
79671;BME280;69137;50.878;8.050;2023-04-12T09:39:32;96616.78;;;7.89;87.20
79671;BME280;69137;50.878;8.050;2023-04-12T09:42:08;96610.50;;;7.88;87.80
79671;BME280;69137;50.878;8.050;2023-04-12T09:44:34;96600.47;;;7.89;87.45
79671;BME280;69137;50.878;8.050;2023-04-12T09:47:00;96606.63;;;7.95;87.44
79671;BME280;69137;50.878;8.050;2023-04-12T09:52:09;96594.91;;;7.75;88.46
79671;BME280;69137;50.878;8.050;2023-04-12T09:54:43;96586.53;;;7.72;88.38
79671;BME280;69137;50.878;8.050;2023-04-12T09:57:09;96588.66;;;7.75;88.10
79671;BME280;69137;50.878;8.050;2023-04-12T09:59:37;96589.47;;;7.75;88.83
79671;BME280;69137;50.878;8.050;2023-04-12T10:02:13;96584.56;;;7.77;88.32
79671;BME280;69137;50.878;8.050;2023-04-12T10:04:39;96583.16;;;7.80;88.54
79671;BME280;69137;50.878;8.050;2023-04-12T10:07:05;96588.38;;;7.76;88.18
79671;BME280;69137;50.878;8.050;2023-04-12T10:09:32;96580.69;;;7.83;88.51
79671;BME280;69137;50.878;8.050;2023-04-12T10:12:00;96580.97;;;7.82;88.24
79671;BME280;69137;50.878;8.050;2023-04-12T10:14:27;96577.66;;;7.85;89.26
79671;BME280;69137;50.878;8.050;2023-04-12T10:16:56;96590.72;;;7.83;89.61
79671;BME280;69137;50.878;8.050;2023-04-12T10:19:24;96589.47;;;7.75;89.49
79671;BME280;69137;50.878;8.050;2023-04-12T10:21:50;96585.53;;;7.86;89.63
79671;BME280;69137;50.878;8.050;2023-04-12T10:24:15;96581.84;;;7.96;89.09
79671;BME280;69137;50.878;8.050;2023-04-12T10:26:42;96576.94;;;7.98;89.29
79671;BME280;69137;50.878;8.050;2023-04-12T10:31:53;96585.34;;;8.02;89.72
79671;BME280;69137;50.878;8.050;2023-04-12T10:34:25;96585.75;;;8.09;89.28
79671;BME280;69137;50.878;8.050;2023-04-12T10:36:57;96575.72;;;8.09;89.52
79671;BME280;69137;50.878;8.050;2023-04-12T10:39:41;96570.31;;;8.23;89.60
79671;BME280;69137;50.878;8.050;2023-04-12T10:42:21;96570.59;;;8.22;89.42
79671;BME280;69137;50.878;8.050;2023-04-12T10:44:48;96574.50;;;8.35;89.83
79671;BME280;69137;50.878;8.050;2023-04-12T10:47:15;96573.19;;;8.32;89.71
79671;BME280;69137;50.878;8.050;2023-04-12T10:55:41;96559.88;;;8.49;88.97
79671;BME280;69137;50.878;8.050;2023-04-12T10:58:07;96554.28;;;8.60;88.86
79671;BME280;69137;50.878;8.050;2023-04-12T11:03:25;96554.72;;;8.81;89.14
79671;BME280;69137;50.878;8.050;2023-04-12T11:06:01;96549.00;;;8.82;88.17
79671;BME280;69137;50.878;8.050;2023-04-12T11:08:28;96551.19;;;8.80;88.71
79671;BME280;69137;50.878;8.050;2023-04-12T11:11:18;96564.84;;;8.94;88.20
79671;BME280;69137;50.878;8.050;2023-04-12T11:13:45;96555.69;;;9.04;86.84
79671;BME280;69137;50.878;8.050;2023-04-12T11:16:10;96557.50;;;9.08;86.25
79671;BME280;69137;50.878;8.050;2023-04-12T11:18:37;96553.56;;;9.01;88.15
79671;BME280;69137;50.878;8.050;2023-04-12T11:21:03;96558.00;;;9.10;87.85
79671;BME280;69137;50.878;8.050;2023-04-12T11:23:32;96538.94;;;9.10;88.42
79671;BME280;69137;50.878;8.050;2023-04-12T11:26:02;96541.16;;;9.36;87.02
79671;BME280;69137;50.878;8.050;2023-04-12T11:28:28;96540.34;;;9.35;88.46
79671;BME280;69137;50.878;8.050;2023-04-12T11:30:55;96535.00;;;9.44;86.98
79671;BME280;69137;50.878;8.050;2023-04-12T11:33:34;96541.47;;;9.48;87.23
79671;BME280;69137;50.878;8.050;2023-04-12T11:36:11;96532.06;;;9.54;86.94
79671;BME280;69137;50.878;8.050;2023-04-12T11:38:37;96534.19;;;9.71;87.66
79671;BME280;69137;50.878;8.050;2023-04-12T11:41:04;96529.31;;;9.82;85.15
79671;BME280;69137;50.878;8.050;2023-04-12T11:43:32;96528.56;;;9.90;86.72
79671;BME280;69137;50.878;8.050;2023-04-12T11:45:59;96533.81;;;10.00;86.97
79671;BME280;69137;50.878;8.050;2023-04-12T11:48:25;96547.53;;;10.09;87.65
79671;BME280;69137;50.878;8.050;2023-04-12T11:50:51;96543.88;;;10.14;85.22
79671;BME280;69137;50.878;8.050;2023-04-12T11:53:18;96548.59;;;10.22;83.89
79671;BME280;69137;50.878;8.050;2023-04-12T11:55:50;96549.28;;;10.41;85.86
79671;BME280;69137;50.878;8.050;2023-04-12T11:58:22;96538.94;;;10.61;83.95
79671;BME280;69137;50.878;8.050;2023-04-12T12:00:47;96533.09;;;10.76;84.94
79671;BME280;69137;50.878;8.050;2023-04-12T12:03:13;96523.69;;;10.82;82.56
79671;BME280;69137;50.878;8.050;2023-04-12T12:05:40;96532.41;;;10.93;84.02
79671;BME280;69137;50.878;8.050;2023-04-12T12:08:07;96529.00;;;10.87;81.57
79671;BME280;69137;50.878;8.050;2023-04-12T12:10:37;96530.47;;;10.93;83.15
79671;BME280;69137;50.878;8.050;2023-04-12T12:13:09;96516.69;;;10.99;84.20
79671;BME280;69137;50.878;8.050;2023-04-12T12:15:35;96515.53;;;10.91;84.03
79671;BME280;69137;50.878;8.050;2023-04-12T12:18:00;96505.72;;;10.90;84.00
79671;BME280;69137;50.878;8.050;2023-04-12T12:20:27;96509.56;;;10.89;83.35
79671;BME280;69137;50.878;8.050;2023-04-12T12:22:52;96517.81;;;10.98;81.77
79671;BME280;69137;50.878;8.050;2023-04-12T12:25:18;96511.09;;;11.04;82.53
79671;BME280;69137;50.878;8.050;2023-04-12T12:27:44;96515.47;;;11.13;80.82
79671;BME280;69137;50.878;8.050;2023-04-12T12:30:15;96510.53;;;11.24;82.11
79671;BME280;69137;50.878;8.050;2023-04-12T12:32:41;96509.41;;;11.25;79.54
79671;BME280;69137;50.878;8.050;2023-04-12T12:35:12;96517.78;;;11.29;82.20
79671;BME280;69137;50.878;8.050;2023-04-12T12:37:52;96515.06;;;11.29;80.15
79671;BME280;69137;50.878;8.050;2023-04-12T12:40:30;96510.75;;;11.36;82.55
79671;BME280;69137;50.878;8.050;2023-04-12T12:42:57;96509.16;;;11.44;79.99
79671;BME280;69137;50.878;8.050;2023-04-12T12:45:24;96516.66;;;11.30;79.62
79671;BME280;69137;50.878;8.050;2023-04-12T12:47:54;96493.50;;;11.27;77.44
79671;BME280;69137;50.878;8.050;2023-04-12T12:50:26;96489.94;;;11.18;78.83
79671;BME280;69137;50.878;8.050;2023-04-12T12:52:53;96488.59;;;11.07;79.75
79671;BME280;69137;50.878;8.050;2023-04-12T12:55:20;96477.81;;;11.02;80.37
79671;BME280;69137;50.878;8.050;2023-04-12T12:57:47;96480.59;;;11.10;82.40
79671;BME280;69137;50.878;8.050;2023-04-12T13:00:14;96476.28;;;11.18;80.34
79671;BME280;69137;50.878;8.050;2023-04-12T13:02:40;96477.50;;;11.03;82.09
79671;BME280;69137;50.878;8.050;2023-04-12T13:05:06;96480.47;;;10.84;82.25
79671;BME280;69137;50.878;8.050;2023-04-12T13:07:32;96476.09;;;10.75;83.29
79671;BME280;69137;50.878;8.050;2023-04-12T13:09:58;96477.06;;;10.79;80.46
79671;BME280;69137;50.878;8.050;2023-04-12T13:12:24;96475.28;;;10.74;81.29
79671;BME280;69137;50.878;8.050;2023-04-12T13:14:49;96462.78;;;10.82;81.95
79671;BME280;69137;50.878;8.050;2023-04-12T13:17:15;96477.75;;;10.84;84.87
79671;BME280;69137;50.878;8.050;2023-04-12T13:19:41;96476.78;;;10.89;84.79
79671;BME280;69137;50.878;8.050;2023-04-12T13:22:07;96476.84;;;11.06;84.71
79671;BME280;69137;50.878;8.050;2023-04-12T13:24:35;96475.50;;;11.26;82.21
79671;BME280;69137;50.878;8.050;2023-04-12T13:27:01;96483.66;;;11.18;85.16
79671;BME280;69137;50.878;8.050;2023-04-12T13:29:27;96487.50;;;11.08;83.09
79671;BME280;69137;50.878;8.050;2023-04-12T13:31:52;96494.16;;;10.93;84.59
79671;BME280;69137;50.878;8.050;2023-04-12T13:34:18;96504.81;;;10.72;84.94
79671;BME280;69137;50.878;8.050;2023-04-12T13:36:44;96503.03;;;10.67;82.88
79671;BME280;69137;50.878;8.050;2023-04-12T13:39:09;96503.78;;;10.59;83.66